EGPM - Scatsa Shetland Island
Distance from station: E 5mi, 14km
Updated: 10/18/2017 7:20am
Mostly Cloudy
Mostly Cloudy
 Wind from E
Wind: E 14 mph , 22 km/h
Temperature: 48°F , 9°C
Wind Chill: 42°F , 6°C
Dew Point: 41°F , 5°C
Humidity: 76%
Barometer: 30.03 inHg , 1017 hPa
Clouds: Mostly Cloudy
Visibility: 6 miles , 10 km
Cloud details: Mostly Cloudy 2300 ft
2017/10/18 14:20 EGPM 181420Z 09012KT 9999 BKN023 09/05 Q1017 NOSIG